Time;durP1;ratioP1;P1;durP2;ratioP2;P2;SDS_P1;SDS_P2;PMS_P1;PMS_P2;Temp;Humidity;BMP_temperature;BMP_pressure;BME280_temperature;BME280_humidity;BME280_pressure;Samples;Min_cycle;Max_cycle;Signal;HPM_P1;HPM_P2
2023/03/04 00:01:12;;;;;;;63.05;30.33;;;;;;;1.13;96.15;99302.94;4162445;28;20244;-47
2023/03/04 00:03:14;;;;;;;67.80;32.72;;;;;;;1.17;96.22;99306.97;4161615;28;20246;-47
2023/03/04 00:05:16;;;;;;;61.92;33.05;;;;;;;1.19;95.66;99306.78;4162183;28;20226;-47
2023/03/04 00:07:18;;;;;;;59.35;30.42;;;;;;;1.23;96.44;99309.00;4161653;28;20246;-47
2023/03/04 00:09:20;;;;;;;61.05;31.23;;;;;;;1.16;96.65;99302.59;4161834;28;20312;-47
2023/03/04 00:11:22;;;;;;;61.95;30.98;;;;;;;1.04;96.74;99309.34;4161160;28;20240;-48
2023/03/04 00:13:24;;;;;;;61.72;30.23;;;;;;;1.15;97.55;99306.28;4178138;28;20251;-47
2023/03/04 00:15:25;;;;;;;64.53;33.42;;;;;;;1.03;98.19;99313.06;4153245;28;20265;-47
2023/03/04 00:17:28;;;;;;;51.30;30.70;;;;;;;1.03;97.76;99310.38;4177579;28;20248;-46
2023/03/04 00:19:30;;;;;;;64.22;30.85;;;;;;;1.09;97.47;99306.97;4161410;28;20236;-47
2023/03/04 00:21:32;;;;;;;60.97;30.85;;;;;;;0.97;98.13;99312.88;4161863;28;20212;-49
2023/03/04 00:23:34;;;;;;;64.03;30.38;;;;;;;0.96;98.54;99309.38;4177626;28;20300;-47
2023/03/04 00:25:35;;;;;;;58.25;31.98;;;;;;;0.88;98.37;99303.97;4159703;28;20308;-47
2023/03/04 00:27:37;;;;;;;66.63;33.17;;;;;;;0.85;97.97;99309.72;4145722;28;20441;-47
2023/03/04 00:29:39;;;;;;;54.55;30.05;;;;;;;0.82;97.61;99307.34;4162522;28;20225;-47
2023/03/04 00:31:40;;;;;;;58.60;30.48;;;;;;;0.82;97.04;99303.81;4155751;28;20709;-47
2023/03/04 00:33:43;;;;;;;60.25;30.48;;;;;;;0.73;96.99;99307.50;4177630;28;20275;-47
2023/03/04 00:35:45;;;;;;;46.95;29.23;;;;;;;0.83;97.26;99300.97;4177820;28;20211;-47
2023/03/04 00:37:47;;;;;;;62.80;31.63;;;;;;;0.89;96.73;99294.88;4161472;28;20212;-47
2023/03/04 00:39:48;;;;;;;64.18;31.27;;;;;;;0.82;97.37;99299.25;4162209;28;20263;-47
2023/03/04 00:41:50;;;;;;;58.22;29.02;;;;;;;0.76;97.22;99307.19;4163641;28;20656;-47
2023/03/04 00:43:52;;;;;;;57.42;30.35;;;;;;;0.69;97.64;99304.31;4160531;28;20247;-47
2023/03/04 00:45:53;;;;;;;53.10;28.40;;;;;;;0.62;97.87;99307.88;4144508;28;20292;-47
2023/03/04 00:47:55;;;;;;;59.92;30.35;;;;;;;0.77;97.51;99304.34;4161807;28;20212;-47
2023/03/04 00:49:57;;;;;;;56.40;29.15;;;;;;;0.75;97.30;99303.66;4162582;28;20235;-47
2023/03/04 00:51:58;;;;;;;68.60;33.10;;;;;;;0.76;97.32;99305.34;4160169;28;20208;-48
2023/03/04 00:54:00;;;;;;;72.30;31.60;;;;;;;0.48;98.84;99300.47;4177906;28;20264;-47
2023/03/04 00:56:02;;;;;;;59.25;30.08;;;;;;;0.41;99.94;99311.03;4160394;28;20212;-48
2023/03/04 00:58:04;;;;;;;66.20;30.48;;;;;;;0.42;99.21;99304.63;4159631;28;20236;-47
2023/03/04 01:00:06;;;;;;;68.35;31.73;;;;;;;0.47;99.28;99305.00;4160887;28;20287;-48
2023/03/04 01:02:08;;;;;;;61.35;29.75;;;;;;;0.52;98.53;99304.47;4160033;28;20628;-49
2023/03/04 01:04:10;;;;;;;63.55;32.22;;;;;;;0.46;98.22;99303.31;4162686;28;20232;-48
2023/03/04 01:06:12;;;;;;;74.60;32.08;;;;;;;0.49;97.80;99302.97;4160488;28;20292;-48
2023/03/04 01:08:13;;;;;;;66.75;29.75;;;;;;;0.41;98.26;99297.59;4158873;28;20311;-48
2023/03/04 01:10:15;;;;;;;61.22;31.80;;;;;;;0.43;97.73;99292.03;4161542;28;20766;-48
2023/03/04 01:12:17;;;;;;;56.60;30.27;;;;;;;0.42;97.79;99296.56;4160162;28;20547;-48
2023/03/04 01:14:19;;;;;;;59.53;30.55;;;;;;;0.36;97.53;99291.84;4176490;28;20298;-47
2023/03/04 01:16:20;;;;;;;63.80;32.88;;;;;;;0.38;97.78;99289.84;4158414;28;20208;-48
2023/03/04 01:18:23;;;;;;;56.63;29.35;;;;;;;0.33;98.03;99286.81;4177349;28;20301;-48
2023/03/04 01:20:25;;;;;;;61.85;33.88;;;;;;;0.34;98.39;99285.81;4159917;28;20267;-48
2023/03/04 01:22:26;;;;;;;65.03;32.30;;;;;;;0.31;98.06;99290.69;4160808;28;20296;-48
2023/03/04 01:24:29;;;;;;;51.00;28.77;;;;;;;0.33;98.34;99286.81;4161235;28;20208;-48
2023/03/04 01:26:31;;;;;;;63.05;29.63;;;;;;;0.27;98.23;99292.03;4175833;28;20561;-49
2023/03/04 01:28:34;;;;;;;73.50;32.70;;;;;;;0.31;98.75;99283.47;4158947;28;20307;-48
2023/03/04 01:30:36;;;;;;;65.30;30.38;;;;;;;0.33;98.60;99289.50;4162151;28;20211;-48
2023/03/04 01:32:38;;;;;;;64.57;31.17;;;;;;;0.23;98.12;99286.16;4157628;28;20247;-48
2023/03/04 01:34:39;;;;;;;63.05;31.88;;;;;;;0.25;98.43;99276.06;4144972;28;20260;-48
2023/03/04 01:36:41;;;;;;;51.50;27.67;;;;;;;0.17;97.21;99276.06;4160093;28;20315;-48
2023/03/04 01:38:43;;;;;;;56.75;29.05;;;;;;;0.11;97.18;99279.41;4160481;28;20299;-48
2023/03/04 01:40:44;;;;;;;61.70;29.55;;;;;;;0.15;97.52;99267.28;4163495;28;20567;-48
2023/03/04 01:42:46;;;;;;;61.30;28.93;;;;;;;0.17;97.57;99265.28;4159282;28;20208;-48
2023/03/04 01:44:48;;;;;;;61.25;30.77;;;;;;;0.18;97.48;99261.59;4158346;28;20201;-49
2023/03/04 01:46:52;;;;;;;59.93;31.57;;;;;;;0.16;97.48;99258.19;4160654;28;20662;-48
2023/03/04 01:48:54;;;;;;;61.10;29.98;;;;;;;0.11;97.19;99260.56;4157780;28;20225;-48
2023/03/04 01:50:58;;;;;;;65.43;30.77;;;;;;;0.06;96.93;99257.53;4145583;28;20284;-48
2023/03/04 01:53:00;;;;;;;67.18;29.25;;;;;;;-0.06;96.49;99252.66;4171752;28;20705;-48
2023/03/04 01:55:09;;;;;;;63.60;30.90;;;;;;;-0.10;96.62;99253.97;4160224;28;20827;-48
2023/03/04 01:57:17;;;;;;;61.83;29.00;;;;;;;-0.09;96.94;99260.19;4175228;28;20203;-47
2023/03/04 01:59:22;;;;;;;54.00;28.93;;;;;;;-0.13;96.97;99254.31;4151814;28;20315;-48
2023/03/04 02:01:23;;;;;;;55.23;28.47;;;;;;;0.01;96.96;99251.78;4159368;28;20300;-48
2023/03/04 02:03:25;;;;;;;67.32;29.40;;;;;;;-0.12;96.89;99258.69;4159341;28;20209;-48
2023/03/04 02:05:27;;;;;;;57.45;30.30;;;;;;;-0.17;97.09;99252.09;4143248;28;20688;-48
2023/03/04 02:07:29;;;;;;;61.05;30.40;;;;;;;-0.22;97.58;99251.75;4175594;28;20287;-48
2023/03/04 02:09:32;;;;;;;67.97;31.00;;;;;;;-0.19;98.00;99246.03;4162268;28;20800;-48
2023/03/04 02:11:34;;;;;;;69.70;33.13;;;;;;;-0.16;98.23;99251.13;4159973;28;20208;-47
2023/03/04 02:13:39;;;;;;;56.47;30.17;;;;;;;-0.17;98.03;99238.66;4160204;28;20200;-48
2023/03/04 02:15:44;;;;;;;58.03;30.23;;;;;;;-0.17;98.26;99249.41;4176368;28;20219;-48
2023/03/04 02:17:46;;;;;;;56.87;31.20;;;;;;;-0.19;98.26;99241.53;4175008;28;20211;-48
2023/03/04 02:19:55;;;;;;;57.00;32.27;;;;;;;-0.22;98.28;99235.63;4166385;28;20209;-48
2023/03/04 02:21:57;;;;;;;70.90;31.40;;;;;;;-0.29;98.50;99240.00;4153754;28;20204;-48
2023/03/04 02:24:07;;;;;;;66.40;32.63;;;;;;;-0.24;98.70;99237.63;4158878;28;20745;-47
2023/03/04 02:26:20;;;;;;;78.60;32.17;;;;;;;-0.21;98.78;99226.56;4173553;28;20290;-48
2023/03/04 02:28:22;;;;;;;72.60;32.27;;;;;;;-0.16;98.34;99233.13;4174721;28;20235;-48
2023/03/04 02:30:27;;;;;;;58.43;30.43;;;;;;;-0.25;98.09;99231.41;4159597;28;20291;-48
2023/03/04 02:32:29;;;;;;;64.97;31.53;;;;;;;-0.28;98.46;99236.28;4160024;28;20238;-48
2023/03/04 02:34:33;;;;;;;63.00;31.50;;;;;;;-0.32;98.27;99229.53;4158370;28;20236;-48
2023/03/04 02:36:35;;;;;;;70.33;31.07;;;;;;;-0.32;98.82;99232.22;4160200;28;20769;-48
2023/03/04 02:38:36;;;;;;;69.53;33.07;;;;;;;-0.36;98.61;99229.03;4176002;28;20267;-48
2023/03/04 02:40:40;;;;;;;67.13;31.97;;;;;;;-0.35;98.54;99224.50;4176497;28;20250;-48
2023/03/04 02:42:44;;;;;;;69.83;33.27;;;;;;;-0.39;98.52;99220.47;4160177;28;20634;-47
2023/03/04 02:44:48;;;;;;;70.77;31.63;;;;;;;-0.31;98.65;99225.84;4161961;28;20678;-49
2023/03/04 02:46:50;;;;;;;80.50;32.67;;;;;;;-0.38;98.83;99220.31;4142264;28;20622;-47
2023/03/04 02:48:52;;;;;;;64.20;32.10;;;;;;;-0.39;98.89;99223.16;4158702;28;20620;-47
2023/03/04 02:50:54;;;;;;;72.87;30.73;;;;;;;-0.49;99.11;99217.09;4159045;28;20236;-47
2023/03/04 02:52:55;;;;;;;58.77;31.17;;;;;;;-0.47;99.26;99220.44;4158173;28;20299;-48
2023/03/04 02:55:00;;;;;;;80.07;32.60;;;;;;;-0.52;98.81;99218.25;4160487;28;20703;-48
2023/03/04 02:57:04;;;;;;;70.90;30.50;;;;;;;-0.46;98.71;99219.44;4175716;28;20236;-48
2023/03/04 02:59:06;;;;;;;65.90;30.87;;;;;;;-0.57;97.75;99225.09;4158716;28;20228;-48
2023/03/04 03:01:07;;;;;;;62.00;29.93;;;;;;;-0.61;98.07;99224.59;4174912;28;20247;-48
2023/03/04 03:03:09;;;;;;;65.57;29.20;;;;;;;-0.57;98.08;99222.41;4141949;28;20209;-48
2023/03/04 03:05:12;;;;;;;60.93;32.33;;;;;;;-0.63;97.56;99223.91;4175155;28;20207;-49
2023/03/04 03:07:14;;;;;;;63.73;28.93;;;;;;;-0.67;97.65;99219.03;4142481;28;20201;-48
2023/03/04 03:09:16;;;;;;;55.10;29.40;;;;;;;-0.66;97.81;99218.88;4158068;28;20236;-48
2023/03/04 03:11:18;;;;;;;46.70;26.93;;;;;;;-0.58;97.73;99218.91;4175205;28;20215;-48
2023/03/04 03:13:19;;;;;;;61.07;30.57;;;;;;;-0.67;97.29;99219.03;4176278;28;20558;-48
2023/03/04 03:15:21;;;;;;;47.83;26.60;;;;;;;-0.67;97.29;99210.97;4175646;28;20263;-48
2023/03/04 03:17:23;;;;;;;52.23;28.27;;;;;;;-0.73;96.88;99211.63;4143680;28;20285;-48
2023/03/04 03:19:24;;;;;;;52.67;27.93;;;;;;;-0.81;96.50;99211.59;4157682;28;20784;-48
2023/03/04 03:21:26;;;;;;;56.87;28.60;;;;;;;-0.81;97.08;99217.78;4176381;28;20294;-48
2023/03/04 03:23:28;;;;;;;60.87;28.77;;;;;;;-0.82;97.01;99212.59;4161037;28;20304;-48
2023/03/04 03:25:29;;;;;;;54.57;27.47;;;;;;;-0.86;97.06;99213.91;4156456;28;20652;-48
2023/03/04 03:27:31;;;;;;;52.43;26.23;;;;;;;-0.88;96.60;99210.56;4159037;28;20742;-48
2023/03/04 03:29:33;;;;;;;46.93;26.03;;;;;;;-0.85;97.01;99213.75;4173958;28;20259;-48
2023/03/04 03:31:34;;;;;;;46.73;28.30;;;;;;;-0.91;96.83;99213.53;4158598;28;20296;-48
2023/03/04 03:33:36;;;;;;;52.27;29.17;;;;;;;-1.02;96.91;99219.22;4175493;28;20208;-48
2023/03/04 03:35:38;;;;;;;51.03;27.07;;;;;;;-1.00;97.04;99217.22;4161326;28;20340;-48
2023/03/04 03:37:39;;;;;;;53.83;26.43;;;;;;;-1.05;97.00;99219.53;4145549;28;20268;-47
2023/03/04 03:39:41;;;;;;;52.13;26.63;;;;;;;-1.05;97.51;99216.84;4161802;28;20351;-48
2023/03/04 03:41:43;;;;;;;47.97;26.67;;;;;;;-1.03;96.96;99218.38;4176920;28;20640;-47
2023/03/04 03:43:44;;;;;;;47.03;25.10;;;;;;;-0.97;96.97;99222.25;4179324;28;20206;-48
2023/03/04 03:45:46;;;;;;;41.67;26.13;;;;;;;-0.88;96.54;99216.75;4178954;28;20283;-48
2023/03/04 03:47:48;;;;;;;49.40;27.70;;;;;;;-0.97;96.24;99216.88;4162889;28;20200;-48
2023/03/04 03:49:49;;;;;;;53.43;28.10;;;;;;;-1.07;96.05;99221.53;4162924;28;20271;-48
2023/03/04 03:51:51;;;;;;;58.63;28.30;;;;;;;-1.11;96.14;99212.09;4161709;28;20714;-48
2023/03/04 03:53:53;;;;;;;51.40;28.80;;;;;;;-1.18;96.81;99216.44;4161090;28;20239;-48
2023/03/04 03:55:54;;;;;;;47.33;26.43;;;;;;;-1.24;96.67;99214.38;4179064;28;20228;-48
2023/03/04 03:57:56;;;;;;;44.77;25.80;;;;;;;-1.26;96.82;99222.63;4161865;28;20355;-48
2023/03/04 03:59:58;;;;;;;55.03;24.90;;;;;;;-1.19;96.88;99220.13;4179629;28;20235;-48
2023/03/04 04:02:03;;;;;;;54.93;27.43;;;;;;;-1.22;97.00;99217.78;4161029;28;20252;-49
2023/03/04 04:04:04;;;;;;;49.20;29.20;;;;;;;-1.29;96.44;99219.41;4162083;28;20659;-48
2023/03/04 04:06:06;;;;;;;56.70;28.70;;;;;;;-1.34;96.62;99213.66;4161093;28;20236;-48
2023/03/04 04:08:12;;;;;;;51.83;27.30;;;;;;;-1.26;96.73;99221.75;4146904;28;20316;-48
2023/03/04 04:10:14;;;;;;;50.47;26.47;;;;;;;-1.23;96.95;99221.44;4153527;28;20207;-48
2023/03/04 04:12:16;;;;;;;51.27;26.87;;;;;;;-1.18;96.62;99219.13;4169817;28;20425;-48
2023/03/04 04:14:17;;;;;;;56.10;27.77;;;;;;;-1.33;96.13;99215.34;4162044;28;20303;-48
2023/03/04 04:16:19;;;;;;;57.53;27.80;;;;;;;-1.30;96.22;99215.88;4161968;28;20266;-48
2023/03/04 04:18:22;;;;;;;56.00;26.90;;;;;;;-1.38;96.05;99217.66;4164723;28;20235;-48
2023/03/04 04:20:24;;;;;;;47.47;28.60;;;;;;;-1.41;96.44;99218.81;4161875;28;20335;-48
2023/03/04 04:22:26;;;;;;;55.67;28.30;;;;;;;-1.42;96.67;99221.66;4162662;28;20216;-48
2023/03/04 04:24:28;;;;;;;56.70;26.30;;;;;;;-1.50;96.67;99218.91;4178139;28;20679;-48
2023/03/04 04:26:30;;;;;;;57.87;28.53;;;;;;;-1.39;96.61;99219.50;4178757;28;20686;-47
2023/03/04 04:28:32;;;;;;;51.03;29.03;;;;;;;-1.53;96.49;99216.56;4160040;28;20247;-48
2023/03/04 04:30:34;;;;;;;50.20;25.63;;;;;;;-1.43;96.82;99215.44;4176270;28;20270;-48
2023/03/04 04:32:36;;;;;;;64.43;31.13;;;;;;;-1.53;97.24;99214.69;4160613;28;20212;-48
2023/03/04 04:34:38;;;;;;;67.70;26.77;;;;;;;-1.39;97.62;99211.47;4161477;28;20204;-48
2023/03/04 04:36:39;;;;;;;72.67;30.30;;;;;;;-1.48;97.62;99203.50;4177609;28;20391;-48
2023/03/04 04:38:41;;;;;;;65.17;30.73;;;;;;;-1.55;97.80;99205.16;4177338;28;20259;-49
2023/03/04 04:40:43;;;;;;;59.97;29.20;;;;;;;-1.47;98.00;99213.25;4161560;28;20205;-49
2023/03/04 04:42:44;;;;;;;58.63;29.20;;;;;;;-1.60;97.80;99218.19;4161787;28;20232;-47
2023/03/04 04:44:46;;;;;;;67.10;29.33;;;;;;;-1.64;97.85;99212.28;4161943;28;20214;-48
2023/03/04 04:46:48;;;;;;;59.70;28.40;;;;;;;-1.55;97.79;99215.88;4158128;28;20293;-48
2023/03/04 04:48:50;;;;;;;68.47;28.63;;;;;;;-1.66;97.75;99219.66;4176796;28;20311;-47
2023/03/04 04:50:55;;;;;;;68.60;30.37;;;;;;;-1.62;97.91;99220.19;4161571;28;20681;-48
2023/03/04 04:52:57;;;;;;;67.50;29.40;;;;;;;-1.63;97.97;99219.31;4175104;28;20235;-48
2023/03/04 04:54:58;;;;;;;61.17;28.43;;;;;;;-1.63;98.08;99221.16;4164089;28;20660;-48
2023/03/04 04:57:00;;;;;;;55.17;28.20;;;;;;;-1.78;98.11;99215.53;4161203;28;20255;-48
2023/03/04 04:59:04;;;;;;;63.97;29.73;;;;;;;-1.83;98.31;99217.84;4160522;28;20291;-48
2023/03/04 05:01:06;;;;;;;72.37;31.07;;;;;;;-1.85;98.53;99218.97;4176861;28;20299;-48
2023/03/04 05:03:07;;;;;;;74.87;29.83;;;;;;;-1.72;98.79;99224.78;4158918;28;20216;-48
2023/03/04 05:05:09;;;;;;;64.80;30.67;;;;;;;-1.77;98.89;99227.09;4161195;28;20564;-48
2023/03/04 05:07:11;;;;;;;75.77;30.30;;;;;;;-1.71;98.92;99231.81;4160368;28;20212;-49
2023/03/04 05:09:13;;;;;;;62.33;31.10;;;;;;;-1.67;98.67;99226.00;4160459;28;20266;-48
2023/03/04 05:11:15;;;;;;;66.33;28.40;;;;;;;-1.64;98.45;99227.53;4160221;28;20303;-48
2023/03/04 05:13:18;;;;;;;61.00;29.53;;;;;;;-1.65;97.85;99231.22;4160155;28;20355;-48
2023/03/04 05:15:19;;;;;;;55.87;27.20;;;;;;;-1.52;97.71;99231.66;4160123;28;20235;-48
2023/03/04 05:17:21;;;;;;;55.70;29.40;;;;;;;-1.62;97.26;99226.38;4160774;28;20212;-48
2023/03/04 05:19:23;;;;;;;59.50;30.23;;;;;;;-1.57;97.52;99229.44;4176641;28;20356;-48
2023/03/04 05:21:24;;;;;;;55.07;29.23;;;;;;;-1.65;97.22;99225.84;4158988;28;20232;-48
2023/03/04 05:23:30;;;;;;;70.17;31.37;;;;;;;-1.48;97.56;99227.66;4160645;28;20247;-48
2023/03/04 05:25:31;;;;;;;65.17;28.50;;;;;;;-1.55;97.65;99221.25;4160999;28;20308;-48
2023/03/04 05:27:33;;;;;;;72.27;30.13;;;;;;;-1.57;97.41;99221.38;4160571;28;20243;-48
2023/03/04 05:29:35;;;;;;;68.60;30.17;;;;;;;-1.56;97.68;99216.84;4177192;28;20605;-48
2023/03/04 05:31:36;;;;;;;72.33;33.13;;;;;;;-1.52;97.85;99220.91;4159497;28;20213;-48
2023/03/04 05:33:39;;;;;;;65.07;30.93;;;;;;;-1.49;98.24;99231.34;4159749;28;20255;-48
2023/03/04 05:35:42;;;;;;;56.17;28.30;;;;;;;-1.54;98.15;99228.28;4153057;28;20323;-48
2023/03/04 05:37:44;;;;;;;67.73;28.60;;;;;;;-1.57;98.67;99226.75;4175853;28;20253;-48
2023/03/04 05:39:46;;;;;;;68.03;28.83;;;;;;;-1.48;98.62;99230.34;4161658;28;20212;-48
2023/03/04 05:41:47;;;;;;;65.37;27.13;;;;;;;-1.47;98.82;99229.34;4174714;28;20212;-48
2023/03/04 05:43:49;;;;;;;81.17;32.63;;;;;;;-1.43;99.03;99233.38;4176620;28;20521;-48
2023/03/04 05:45:51;;;;;;;60.70;28.57;;;;;;;-1.46;98.80;99225.66;4143860;28;20334;-48
2023/03/04 05:47:52;;;;;;;79.33;30.10;;;;;;;-1.48;99.17;99227.66;4159210;28;20240;-48
2023/03/04 05:49:55;;;;;;;62.83;29.90;;;;;;;-1.50;98.87;99225.13;4166490;28;20642;-48
2023/03/04 05:51:56;;;;;;;57.43;29.73;;;;;;;-1.46;99.10;99226.50;4164252;28;20678;-48
2023/03/04 05:53:58;;;;;;;50.80;27.23;;;;;;;-1.33;98.94;99220.72;4143597;28;20482;-48
2023/03/04 05:56:06;;;;;;;66.63;28.17;;;;;;;-1.48;98.50;99231.16;4160035;28;20312;-49
2023/03/04 05:58:07;;;;;;;63.90;28.70;;;;;;;-1.41;98.81;99223.34;4158590;28;20263;-48
2023/03/04 06:00:11;;;;;;;62.23;29.77;;;;;;;-1.44;98.73;99223.66;4166947;28;20215;-48
2023/03/04 06:02:13;;;;;;;56.70;28.67;;;;;;;-1.52;98.86;99224.44;4171813;28;20208;-49
2023/03/04 06:04:16;;;;;;;53.53;28.07;;;;;;;-1.48;98.80;99233.03;4142031;28;20631;-49
2023/03/04 06:06:17;;;;;;;73.17;30.03;;;;;;;-1.37;98.71;99230.06;4143441;28;20293;-48
2023/03/04 06:08:19;;;;;;;77.57;29.73;;;;;;;-1.45;98.90;99232.69;4175481;28;20272;-48
2023/03/04 06:10:21;;;;;;;66.97;31.00;;;;;;;-1.48;98.90;99241.06;4175082;28;20303;-47
2023/03/04 06:12:23;;;;;;;57.43;28.27;;;;;;;-1.40;99.17;99235.75;4177232;28;20240;-47
2023/03/04 06:14:24;;;;;;;74.00;30.07;;;;;;;-1.37;99.21;99232.75;4159969;28;20201;-48
2023/03/04 06:16:29;;;;;;;72.03;26.83;;;;;;;-1.43;98.80;99241.44;4159267;28;20232;-48
2023/03/04 06:18:31;;;;;;;64.10;28.43;;;;;;;-1.43;99.21;99241.44;4159816;28;20235;-48
2023/03/04 06:20:33;;;;;;;69.13;27.70;;;;;;;-1.27;99.59;99236.19;4160022;28;20207;-48
2023/03/04 06:22:34;;;;;;;70.13;29.97;;;;;;;-1.34;99.12;99241.31;4163465;28;20295;-48
2023/03/04 06:24:36;;;;;;;60.67;28.90;;;;;;;-1.29;99.53;99239.00;4154212;28;20250;-47
2023/03/04 06:26:38;;;;;;;67.83;28.73;;;;;;;-1.33;99.43;99247.53;4159917;28;20663;-47
2023/03/04 06:28:43;;;;;;;67.10;29.53;;;;;;;-1.32;99.63;99244.72;4160107;28;20336;-47
2023/03/04 06:30:45;;;;;;;64.20;29.97;;;;;;;-1.34;99.63;99249.38;4158678;28;20685;-47
2023/03/04 06:32:47;;;;;;;55.57;26.67;;;;;;;-1.24;99.97;99246.59;4177087;28;20203;-48
2023/03/04 06:34:48;;;;;;;66.70;28.70;;;;;;;-1.30;99.91;99263.31;4157912;28;20671;-48
2023/03/04 06:36:50;;;;;;;67.53;29.53;;;;;;;-1.27;99.70;99252.28;4175947;28;20612;-49
2023/03/04 06:38:52;;;;;;;75.23;31.17;;;;;;;-1.32;99.72;99254.59;4176573;28;20307;-48
2023/03/04 06:40:54;;;;;;;73.30;29.83;;;;;;;-1.33;99.99;99258.28;4175219;28;20298;-48
2023/03/04 06:42:58;;;;;;;59.40;28.53;;;;;;;-1.33;99.59;99258.28;4161544;28;20295;-48
2023/03/04 06:44:59;;;;;;;73.33;30.37;;;;;;;-1.19;99.85;99261.25;4160793;28;20308;-48
2023/03/04 06:47:01;;;;;;;59.13;26.37;;;;;;;-1.10;99.12;99264.78;4139897;28;20300;-48
2023/03/04 06:49:03;;;;;;;68.80;30.70;;;;;;;-1.23;99.16;99264.38;4158915;28;20315;-48
2023/03/04 06:51:09;;;;;;;69.63;29.50;;;;;;;-1.05;99.80;99273.22;4176233;28;20291;-49
2023/03/04 06:53:10;;;;;;;76.27;32.30;;;;;;;-1.16;99.20;99265.44;4175808;28;20295;-48
2023/03/04 06:55:12;;;;;;;66.77;29.83;;;;;;;-1.19;99.62;99269.28;4175300;28;20291;-48
2023/03/04 06:57:14;;;;;;;75.17;32.00;;;;;;;-1.17;99.71;99269.97;4177430;28;20326;-48
2023/03/04 06:59:15;;;;;;;75.50;35.23;;;;;;;-0.98;99.83;99275.13;4160033;28;20431;-49
2023/03/04 07:01:23;;;;;;;81.43;33.23;;;;;;;-1.05;99.63;99273.22;4175904;28;20643;-48
2023/03/04 07:03:24;;;;;;;73.77;33.33;;;;;;;-1.02;99.71;99272.91;4174679;28;20214;-48
2023/03/04 07:05:26;;;;;;;72.40;34.13;;;;;;;-0.90;99.93;99285.06;4160568;28;20334;-49
2023/03/04 07:07:28;;;;;;;85.03;33.00;;;;;;;-0.97;100.00;99278.63;4176434;28;20232;-48
2023/03/04 07:09:30;;;;;;;71.67;32.90;;;;;;;-0.99;100.00;99281.50;4158656;28;20229;-48
2023/03/04 07:11:31;;;;;;;70.13;31.20;;;;;;;-0.87;100.00;99282.06;4160799;28;20291;-48
2023/03/04 07:13:37;;;;;;;74.37;31.97;;;;;;;-0.81;100.00;99287.63;4161075;28;20680;-48
2023/03/04 07:15:38;;;;;;;79.17;32.03;;;;;;;-0.81;100.00;99289.50;4173798;28;21920;-48
2023/03/04 07:17:40;;;;;;;68.10;30.93;;;;;;;-0.68;100.00;99289.88;4156882;28;20694;-48
2023/03/04 07:19:42;;;;;;;71.57;32.47;;;;;;;-0.72;100.00;99297.44;4163929;28;20232;-48
2023/03/04 07:21:43;;;;;;;85.83;36.57;;;;;;;-0.53;100.00;99296.34;4161707;28;20324;-48
2023/03/04 07:23:45;;;;;;;85.43;35.17;;;;;;;-0.66;100.00;99302.16;4144469;28;20205;-48
2023/03/04 07:25:48;;;;;;;61.27;31.27;;;;;;;-0.61;100.00;99305.19;4160537;28;20265;-49
2023/03/04 07:27:50;;;;;;;88.70;34.67;;;;;;;-0.42;100.00;99304.94;4164147;28;20680;-47
2023/03/04 07:29:52;;;;;;;80.57;36.43;;;;;;;-0.48;100.00;99304.75;4178012;28;20296;-48
2023/03/04 07:31:54;;;;;;;80.67;32.27;;;;;;;-0.38;100.00;99305.47;4177689;28;20240;-48
2023/03/04 07:34:00;;;;;;;81.30;35.70;;;;;;;-0.35;100.00;99314.03;4177939;28;20235;-48
2023/03/04 07:36:02;;;;;;;79.00;33.80;;;;;;;-0.33;100.00;99311.19;4160369;28;20307;-48
2023/03/04 07:38:04;;;;;;;74.27;31.83;;;;;;;-0.27;100.00;99308.69;4162259;28;20328;-48
2023/03/04 07:40:07;;;;;;;78.73;34.83;;;;;;;-0.16;100.00;99316.47;4178821;28;20204;-48
2023/03/04 07:42:09;;;;;;;86.03;35.57;;;;;;;-0.08;100.00;99316.50;4162936;28;20240;-48
2023/03/04 07:44:12;;;;;;;78.47;36.03;;;;;;;-0.13;100.00;99317.00;4162766;28;20240;-48
2023/03/04 07:46:14;;;;;;;80.17;35.27;;;;;;;-0.15;100.00;99314.63;4178690;28;20235;-49
2023/03/04 07:48:15;;;;;;;99.10;38.93;;;;;;;-0.13;100.00;99316.16;4163401;28;20240;-48
2023/03/04 07:50:17;;;;;;;81.47;37.37;;;;;;;-0.08;100.00;99311.97;4165004;28;20311;-47
2023/03/04 07:52:19;;;;;;;75.43;34.97;;;;;;;0.03;100.00;99317.06;4145043;28;20292;-49
2023/03/04 07:54:20;;;;;;;75.33;34.60;;;;;;;0.05;100.00;99325.78;4166807;28;20858;-48
2023/03/04 07:56:25;;;;;;;76.20;37.37;;;;;;;0.13;100.00;99323.09;4178127;28;20318;-48
2023/03/04 07:58:27;;;;;;;70.27;35.07;;;;;;;0.17;100.00;99319.09;4162778;28;20259;-48
2023/03/04 08:00:28;;;;;;;97.17;38.13;;;;;;;0.17;100.00;99313.72;4176828;28;20243;-49
2023/03/04 08:02:30;;;;;;;83.17;34.47;;;;;;;0.19;100.00;99322.44;4159268;28;20307;-48
2023/03/04 08:04:32;;;;;;;88.77;38.80;;;;;;;0.27;100.00;99318.94;4146428;28;20200;-48
2023/03/04 08:06:34;;;;;;;93.30;39.20;;;;;;;0.29;100.00;99315.06;4162974;28;20212;-49
2023/03/04 08:08:36;;;;;;;76.90;34.07;;;;;;;0.37;100.00;99320.47;4163327;28;20757;-48
2023/03/04 08:10:38;;;;;;;80.73;36.03;;;;;;;0.38;100.00;99321.31;4162578;28;20231;-48
2023/03/04 08:12:40;;;;;;;80.73;33.43;;;;;;;0.46;100.00;99316.78;4161872;28;20649;-49
2023/03/04 08:14:41;;;;;;;71.60;33.70;;;;;;;0.47;100.00;99321.16;4165168;28;20773;-48
2023/03/04 08:16:43;;;;;;;67.18;32.53;;;;;;;0.52;100.00;99316.09;4161015;28;20234;-48
2023/03/04 08:18:47;;;;;;;77.87;37.47;;;;;;;0.54;100.00;99319.47;4176394;28;20319;-48
2023/03/04 08:20:49;;;;;;;77.60;34.35;;;;;;;0.60;100.00;99315.28;4161802;28;20243;-48
2023/03/04 08:22:50;;;;;;;62.63;32.33;;;;;;;0.64;100.00;99312.09;4161774;28;20302;-48
2023/03/04 08:24:52;;;;;;;76.32;34.95;;;;;;;0.70;100.00;99319.50;4161181;28;20270;-48
2023/03/04 08:26:54;;;;;;;72.82;34.00;;;;;;;0.73;100.00;99312.91;4161199;28;20291;-48
2023/03/04 08:28:56;;;;;;;81.63;36.83;;;;;;;0.83;100.00;99318.97;4161169;28;20263;-49
2023/03/04 08:30:58;;;;;;;82.20;36.10;;;;;;;0.89;100.00;99315.59;4176221;28;20283;-49
2023/03/04 08:33:01;;;;;;;76.63;34.97;;;;;;;0.84;100.00;99316.13;4160416;28;20208;-49
2023/03/04 08:35:03;;;;;;;69.70;33.17;;;;;;;0.86;100.00;99316.78;4157465;28;20204;-49
2023/03/04 08:37:06;;;;;;;79.28;35.65;;;;;;;0.86;100.00;99311.38;4156934;28;20227;-48
2023/03/04 08:39:08;;;;;;;82.80;33.25;;;;;;;0.91;100.00;99317.13;4153923;28;20271;-48
2023/03/04 08:41:10;;;;;;;76.50;34.58;;;;;;;1.00;100.00;99316.09;4160931;28;20729;-49
2023/03/04 08:43:11;;;;;;;71.93;33.28;;;;;;;1.07;100.00;99313.56;4161364;28;20809;-49
2023/03/04 08:45:13;;;;;;;78.25;35.10;;;;;;;1.11;100.00;99310.34;4161066;28;20208;-48
2023/03/04 08:47:15;;;;;;;76.03;33.05;;;;;;;1.14;100.00;99303.78;4160835;28;20655;-48
2023/03/04 08:49:17;;;;;;;70.45;33.00;;;;;;;1.06;100.00;99312.72;4159159;28;20335;-48
2023/03/04 08:51:19;;;;;;;63.72;32.53;;;;;;;1.19;100.00;99306.78;4144895;28;20304;-48
2023/03/04 08:53:21;;;;;;;68.75;34.50;;;;;;;0.91;100.00;99309.03;4176172;28;20636;-49
2023/03/04 08:55:22;;;;;;;77.75;33.97;;;;;;;1.07;100.00;99309.00;4160904;28;20301;-49
2023/03/04 08:57:24;;;;;;;76.13;33.92;;;;;;;1.17;100.00;99304.28;4161015;28;20260;-48
2023/03/04 08:59:25;;;;;;;66.43;33.13;;;;;;;1.16;100.00;99308.00;4157998;28;20398;-49
2023/03/04 09:01:27;;;;;;;64.65;31.33;;;;;;;1.18;100.00;99311.34;4146958;28;20213;-49
2023/03/04 09:03:29;;;;;;;65.60;33.08;;;;;;;1.24;100.00;99307.97;4144536;28;20718;-49
2023/03/04 09:05:31;;;;;;;78.95;35.78;;;;;;;1.27;100.00;99310.31;4161491;28;20233;-48
2023/03/04 09:07:33;;;;;;;79.43;34.70;;;;;;;1.31;100.00;99308.09;4160402;28;20232;-48
2023/03/04 09:09:35;;;;;;;63.08;32.08;;;;;;;1.36;100.00;99314.69;4156482;28;20259;-49
2023/03/04 09:11:37;;;;;;;70.50;33.17;;;;;;;1.47;100.00;99311.59;4176662;28;20219;-48
2023/03/04 09:13:38;;;;;;;73.82;33.08;;;;;;;1.48;100.00;99307.88;4160312;28;20201;-48
2023/03/04 09:15:48;;;;;;;64.75;32.63;;;;;;;1.55;100.00;99308.88;4179052;28;20250;-48
2023/03/04 09:17:50;;;;;;;70.60;32.70;;;;;;;1.65;100.00;99317.63;4144198;28;20224;-48
2023/03/04 09:19:52;;;;;;;66.00;33.25;;;;;;;1.77;100.00;99308.13;4160675;28;20722;-48
2023/03/04 09:21:54;;;;;;;73.50;35.00;;;;;;;1.83;100.00;99307.44;4161866;28;20326;-48
2023/03/04 09:23:56;;;;;;;56.20;31.85;;;;;;;1.84;100.00;99309.09;4177746;28;20290;-49